createdAt,value
2022-12-25T00:02:07.229Z,20.20
2022-12-25T00:04:44.460Z,19.90
2022-12-25T00:07:21.279Z,20.40
2022-12-25T00:09:58.305Z,22.20
2022-12-25T00:12:34.839Z,20.30
2022-12-25T00:15:13.913Z,22.10
2022-12-25T00:17:51.221Z,23.00
2022-12-25T00:20:27.978Z,21.00
2022-12-25T00:23:05.425Z,21.00
2022-12-25T00:25:43.900Z,18.10
2022-12-25T00:28:20.040Z,15.30
2022-12-25T00:30:56.720Z,15.40
2022-12-25T00:33:33.451Z,18.80
2022-12-25T00:36:12.374Z,15.50
2022-12-25T00:38:49.314Z,13.00
2022-12-25T00:41:40.763Z,13.30
2022-12-25T00:44:18.303Z,11.50
2022-12-25T00:46:55.642Z,11.80
2022-12-25T00:49:32.624Z,11.00
2022-12-25T00:52:10.382Z,9.70
2022-12-25T00:54:46.944Z,9.70
2022-12-25T00:57:23.461Z,9.10
2022-12-25T01:00:00.417Z,9.80
2022-12-25T01:02:37.368Z,9.20
2022-12-25T01:05:16.926Z,9.30
2022-12-25T01:07:54.352Z,9.40
2022-12-25T01:10:31.131Z,10.40
2022-12-25T01:13:08.442Z,10.30
2022-12-25T01:15:46.503Z,9.60
2022-12-25T01:18:23.523Z,10.10
2022-12-25T01:21:00.789Z,9.20
2022-12-25T01:23:37.895Z,9.10
2022-12-25T01:26:17.846Z,9.40
2022-12-25T01:28:54.376Z,8.80
2022-12-25T01:31:31.189Z,8.70
2022-12-25T01:34:07.980Z,9.10
2022-12-25T01:36:45.160Z,10.20
2022-12-25T01:39:22.178Z,9.50
2022-12-25T01:41:58.509Z,9.00
2022-12-25T01:45:25.433Z,8.70
2022-12-25T01:48:03.425Z,8.30
2022-12-25T01:50:41.855Z,8.70
2022-12-25T01:53:19.305Z,8.70
2022-12-25T01:56:00.075Z,9.80
2022-12-25T01:58:37.540Z,10.10
2022-12-25T02:01:16.476Z,9.50
2022-12-25T02:03:54.605Z,7.60
2022-12-25T02:06:32.735Z,8.50
2022-12-25T02:09:09.573Z,9.10
2022-12-25T02:12:01.135Z,8.80
2022-12-25T02:14:40.798Z,7.80
2022-12-25T02:17:26.161Z,7.80
2022-12-25T02:20:46.276Z,7.30
2022-12-25T02:24:14.759Z,8.40
2022-12-25T02:27:10.376Z,9.90
2022-12-25T02:30:02.066Z,9.20
2022-12-25T02:32:45.863Z,8.70
2022-12-25T02:35:31.252Z,9.20
2022-12-25T02:38:16.165Z,8.70
2022-12-25T02:41:00.053Z,8.70
2022-12-25T02:44:00.428Z,8.40
2022-12-25T02:46:57.048Z,9.00
2022-12-25T02:49:51.690Z,8.30
2022-12-25T02:53:04.112Z,8.20
2022-12-25T02:56:08.948Z,8.20
2022-12-25T02:59:05.463Z,8.90
2022-12-25T03:02:00.969Z,8.30
2022-12-25T03:04:55.592Z,8.50
2022-12-25T03:07:35.918Z,8.50
2022-12-25T03:10:35.054Z,7.80
2022-12-25T03:13:17.307Z,8.00
2022-12-25T03:16:11.311Z,7.60
2022-12-25T03:18:48.337Z,7.70
2022-12-25T03:21:56.331Z,7.90
2022-12-25T03:24:49.869Z,7.50
2022-12-25T03:27:27.244Z,7.50
2022-12-25T03:30:20.453Z,7.20
2022-12-25T03:33:36.591Z,7.30
2022-12-25T03:36:21.406Z,6.50
2022-12-25T03:39:25.205Z,6.80
2022-12-25T03:42:24.646Z,7.50
2022-12-25T03:45:26.820Z,7.20
2022-12-25T03:48:20.462Z,7.00
2022-12-25T03:51:21.613Z,7.30
2022-12-25T03:54:22.772Z,6.40
2022-12-25T03:57:17.468Z,7.40
2022-12-25T04:00:10.078Z,7.50
2022-12-25T04:03:03.710Z,7.10
2022-12-25T04:05:57.398Z,6.90
2022-12-25T04:08:52.309Z,7.80
2022-12-25T04:11:44.896Z,8.90
2022-12-25T04:14:38.888Z,8.20
2022-12-25T04:17:32.429Z,7.90
2022-12-25T04:20:30.035Z,8.60
2022-12-25T04:23:23.570Z,7.20
2022-12-25T04:26:18.969Z,7.40
2022-12-25T04:29:12.244Z,6.60
2022-12-25T04:32:06.253Z,6.90
2022-12-25T04:34:59.826Z,8.00
2022-12-25T04:37:36.928Z,9.60
2022-12-25T04:40:18.855Z,8.80
2022-12-25T04:42:57.259Z,8.30
2022-12-25T04:45:33.273Z,8.60
2022-12-25T04:48:10.689Z,8.00
2022-12-25T04:50:46.918Z,7.40
2022-12-25T04:53:22.828Z,8.00
2022-12-25T04:56:08.856Z,7.50
2022-12-25T04:58:44.793Z,7.70
2022-12-25T05:01:20.995Z,7.90
2022-12-25T05:03:57.624Z,7.50
2022-12-25T05:06:33.501Z,9.60
2022-12-25T05:09:10.671Z,8.50
2022-12-25T05:11:47.270Z,8.50
2022-12-25T05:14:24.847Z,8.10
2022-12-25T05:17:01.138Z,9.20
2022-12-25T05:19:37.461Z,9.00
2022-12-25T05:22:14.677Z,9.00
2022-12-25T05:24:51.185Z,8.40
2022-12-25T05:27:27.745Z,8.60
2022-12-25T05:30:04.534Z,10.20
2022-12-25T05:32:40.785Z,22.00
2022-12-25T05:35:18.661Z,16.60
2022-12-25T05:37:55.528Z,15.70
2022-12-25T05:40:32.696Z,10.10
2022-12-25T05:43:08.347Z,9.50
2022-12-25T05:45:44.685Z,9.10
2022-12-25T05:48:20.826Z,8.80
2022-12-25T05:50:58.149Z,11.50
2022-12-25T05:53:36.684Z,13.50
2022-12-25T05:56:14.847Z,9.00
2022-12-25T05:58:52.225Z,7.30
2022-12-25T06:01:30.031Z,8.50
2022-12-25T06:04:12.389Z,9.20
2022-12-25T06:06:49.809Z,9.40
2022-12-25T06:09:26.635Z,9.90
2022-12-25T06:12:03.422Z,10.70
2022-12-25T06:14:40.252Z,8.90
2022-12-25T06:17:16.617Z,10.10
2022-12-25T06:19:53.478Z,11.20
2022-12-25T06:22:33.745Z,10.30
2022-12-25T06:25:14.347Z,7.60
2022-12-25T06:27:51.896Z,9.10
2022-12-25T06:30:28.663Z,10.60
2022-12-25T06:33:06.296Z,10.90
2022-12-25T06:35:45.693Z,10.40
2022-12-25T06:38:22.662Z,9.30
2022-12-25T06:41:05.780Z,11.40
2022-12-25T06:43:42.792Z,10.60
2022-12-25T06:46:20.380Z,10.20
2022-12-25T06:48:56.814Z,10.70
2022-12-25T06:51:35.266Z,9.60
2022-12-25T06:54:13.845Z,10.00
2022-12-25T06:56:51.300Z,8.90
2022-12-25T06:59:28.798Z,9.80
2022-12-25T07:02:05.885Z,11.10
2022-12-25T07:04:44.638Z,10.50
2022-12-25T07:07:22.630Z,9.20
2022-12-25T07:09:59.455Z,8.60
2022-12-25T07:12:36.527Z,7.90
2022-12-25T07:15:18.031Z,8.90
2022-12-25T07:17:54.747Z,7.60
2022-12-25T07:20:32.553Z,8.50
2022-12-25T07:23:10.112Z,7.00
2022-12-25T07:25:46.815Z,6.00
2022-12-25T07:28:23.612Z,6.30
2022-12-25T07:31:03.461Z,5.50
2022-12-25T07:33:40.023Z,6.70
2022-12-25T07:36:22.724Z,7.00
2022-12-25T07:38:59.339Z,6.90
2022-12-25T07:41:36.577Z,7.50
2022-12-25T07:44:23.097Z,8.70
2022-12-25T07:47:00.656Z,8.50
2022-12-25T07:49:38.301Z,8.30
2022-12-25T07:52:15.171Z,6.50
2022-12-25T07:54:51.656Z,6.90
2022-12-25T07:57:28.952Z,6.80
2022-12-25T08:00:06.378Z,6.20
2022-12-25T08:02:48.783Z,7.00
2022-12-25T08:05:27.140Z,8.10
2022-12-25T08:08:03.644Z,9.10
2022-12-25T08:10:40.368Z,10.50
2022-12-25T08:13:17.475Z,10.20
2022-12-25T08:15:59.875Z,10.10
2022-12-25T08:18:36.644Z,9.80
2022-12-25T08:21:17.579Z,9.60
2022-12-25T08:23:54.617Z,8.80
2022-12-25T08:26:31.282Z,9.40
2022-12-25T08:29:07.274Z,9.00
2022-12-25T08:31:46.956Z,9.40
2022-12-25T08:34:23.742Z,9.40
2022-12-25T08:37:00.234Z,9.20
2022-12-25T08:39:37.515Z,9.50
2022-12-25T08:42:15.700Z,9.10
2022-12-25T08:44:52.766Z,10.40
2022-12-25T08:47:29.477Z,9.80
2022-12-25T08:50:05.886Z,9.10
2022-12-25T08:52:42.790Z,8.60
2022-12-25T08:55:19.761Z,8.80
2022-12-25T08:58:00.128Z,7.80
2022-12-25T09:00:36.812Z,8.20
2022-12-25T09:03:13.682Z,10.10
2022-12-25T09:05:50.577Z,16.20
2022-12-25T09:08:28.084Z,12.80
2022-12-25T09:11:10.744Z,10.50
2022-12-25T09:13:47.845Z,10.60
2022-12-25T09:16:27.861Z,9.90
2022-12-25T09:19:04.918Z,11.50
2022-12-25T09:21:41.259Z,10.50
2022-12-25T09:24:18.624Z,12.70
2022-12-25T09:26:55.253Z,12.10
2022-12-25T09:29:32.207Z,13.10
2022-12-25T09:32:10.771Z,12.10
2022-12-25T09:34:47.169Z,12.70
2022-12-25T09:37:24.572Z,12.80
2022-12-25T09:40:01.438Z,11.90
2022-12-25T09:42:39.005Z,14.80
2022-12-25T09:45:21.618Z,15.30
2022-12-25T09:48:00.657Z,14.90
2022-12-25T09:50:50.238Z,14.20
2022-12-25T09:53:30.634Z,14.10
2022-12-25T09:56:16.213Z,14.20
2022-12-25T09:58:53.531Z,13.50
2022-12-25T10:01:43.474Z,15.20
2022-12-25T10:04:40.990Z,14.70
2022-12-25T10:07:28.532Z,14.30
2022-12-25T10:10:23.975Z,13.80
2022-12-25T10:13:12.752Z,14.20
2022-12-25T10:16:01.114Z,13.50
2022-12-25T10:19:22.640Z,14.10
2022-12-25T10:22:04.144Z,17.20
2022-12-25T10:24:46.482Z,17.60
2022-12-25T10:27:33.382Z,17.80
2022-12-25T10:30:20.498Z,17.60
2022-12-25T10:32:58.097Z,16.70
2022-12-25T10:35:36.280Z,16.10
2022-12-25T10:38:21.161Z,16.00
2022-12-25T10:41:21.477Z,14.40
2022-12-25T10:44:00.360Z,15.00
2022-12-25T10:46:36.817Z,14.30
2022-12-25T10:49:18.981Z,14.90
2022-12-25T10:51:55.457Z,15.00
2022-12-25T10:54:33.596Z,15.60
2022-12-25T10:57:19.523Z,16.20
2022-12-25T10:59:57.985Z,14.10
2022-12-25T11:02:38.799Z,13.80
2022-12-25T11:05:25.846Z,15.00
2022-12-25T11:08:02.749Z,13.80
2022-12-25T11:10:44.302Z,13.80
2022-12-25T11:13:28.754Z,11.20
2022-12-25T11:16:16.586Z,11.90
2022-12-25T11:18:56.347Z,9.90
2022-12-25T11:21:36.551Z,10.70
2022-12-25T11:24:23.489Z,10.00
2022-12-25T11:27:01.986Z,12.50
2022-12-25T11:29:48.359Z,11.10
2022-12-25T11:32:32.005Z,11.70
2022-12-25T11:35:17.457Z,11.70
2022-12-25T11:37:57.205Z,13.70
2022-12-25T11:40:52.379Z,12.90
2022-12-25T11:43:36.402Z,14.60
2022-12-25T11:46:22.840Z,14.60
2022-12-25T11:49:08.513Z,12.70
2022-12-25T11:51:51.468Z,13.00
2022-12-25T11:54:41.577Z,13.80
2022-12-25T11:57:18.759Z,13.80
2022-12-25T12:00:09.347Z,13.70
2022-12-25T12:02:56.258Z,13.70
2022-12-25T12:05:41.753Z,14.70
2022-12-25T12:08:18.314Z,15.10
2022-12-25T12:11:18.879Z,14.70
2022-12-25T12:14:39.813Z,15.10
2022-12-25T12:17:20.031Z,13.30
2022-12-25T12:19:56.401Z,13.80
2022-12-25T12:22:35.160Z,14.80
2022-12-25T12:25:22.519Z,14.00
2022-12-25T12:28:05.845Z,14.70
2022-12-25T12:30:43.474Z,14.00
2022-12-25T12:33:29.481Z,14.60
2022-12-25T12:36:10.416Z,16.70
2022-12-25T12:38:48.693Z,16.10
2022-12-25T12:41:25.310Z,14.60
2022-12-25T12:44:07.741Z,16.40
2022-12-25T12:46:56.474Z,15.40
2022-12-25T12:49:35.288Z,14.60
2022-12-25T12:52:26.357Z,14.80
2022-12-25T12:55:09.720Z,14.10
2022-12-25T12:57:47.792Z,15.10
2022-12-25T13:00:26.636Z,15.30
2022-12-25T13:03:53.295Z,14.80
2022-12-25T13:06:42.391Z,13.60
2022-12-25T13:09:41.402Z,15.40
2022-12-25T13:12:21.251Z,14.50
2022-12-25T13:14:58.300Z,14.50
2022-12-25T13:17:35.365Z,14.80
2022-12-25T13:20:25.268Z,13.10
2022-12-25T13:23:02.442Z,12.80
2022-12-25T13:25:39.384Z,13.50
2022-12-25T13:28:26.931Z,14.30
2022-12-25T13:31:17.175Z,14.60
2022-12-25T13:34:01.353Z,14.20
2022-12-25T13:36:43.018Z,13.60
2022-12-25T13:39:24.864Z,13.10
2022-12-25T13:42:10.051Z,15.10
2022-12-25T13:44:53.201Z,13.50
2022-12-25T13:47:33.151Z,12.40
2022-12-25T13:50:27.385Z,13.00
2022-12-25T13:53:18.542Z,12.70
2022-12-25T13:56:00.810Z,12.50
2022-12-25T13:58:41.634Z,12.40
2022-12-25T14:01:21.347Z,12.50
2022-12-25T14:03:58.517Z,11.90
2022-12-25T14:06:36.455Z,11.40
2022-12-25T14:09:14.374Z,12.10
2022-12-25T14:11:56.556Z,12.50
2022-12-25T14:14:34.074Z,16.10
2022-12-25T14:17:13.114Z,15.30
2022-12-25T14:20:03.780Z,15.40
2022-12-25T14:22:44.314Z,18.20
2022-12-25T14:25:26.159Z,17.10
2022-12-25T14:28:07.423Z,14.60
2022-12-25T14:30:47.450Z,14.80
2022-12-25T14:33:27.892Z,14.70
2022-12-25T14:36:04.274Z,14.00
2022-12-25T14:38:42.817Z,14.80
2022-12-25T14:41:38.189Z,13.00
2022-12-25T14:44:40.932Z,13.90
2022-12-25T14:47:24.833Z,14.70
2022-12-25T14:50:02.019Z,14.90
2022-12-25T14:52:47.586Z,14.90
2022-12-25T14:55:29.892Z,13.70
2022-12-25T14:58:10.551Z,13.70
2022-12-25T15:00:47.270Z,13.70
2022-12-25T15:03:33.034Z,14.50
2022-12-25T15:06:21.637Z,13.40
2022-12-25T15:09:08.114Z,13.90
2022-12-25T15:11:44.868Z,15.70
2022-12-25T15:14:21.375Z,16.10
2022-12-25T15:17:01.250Z,15.80
2022-12-25T15:19:40.824Z,16.90
2022-12-25T15:22:20.265Z,16.40
2022-12-25T15:25:01.657Z,17.40
2022-12-25T15:27:39.364Z,17.00
2022-12-25T15:30:21.825Z,16.00
2022-12-25T15:32:58.376Z,16.30
2022-12-25T15:35:38.589Z,19.60
2022-12-25T15:38:16.108Z,26.30
2022-12-25T15:40:55.446Z,19.30
2022-12-25T15:43:41.339Z,17.00
2022-12-25T15:46:19.122Z,17.70
2022-12-25T15:48:56.180Z,18.20
2022-12-25T15:51:32.832Z,17.70
2022-12-25T15:54:09.672Z,17.20
2022-12-25T15:56:48.822Z,19.60
2022-12-25T15:59:26.116Z,18.70
2022-12-25T16:02:04.879Z,20.40
2022-12-25T16:04:43.621Z,19.40
2022-12-25T16:07:24.155Z,18.40
2022-12-25T16:10:00.132Z,18.60
2022-12-25T16:12:36.834Z,17.80
2022-12-25T16:15:18.676Z,18.30
2022-12-25T16:17:54.576Z,17.20
2022-12-25T16:20:31.432Z,17.80
2022-12-25T16:23:07.910Z,18.50
2022-12-25T16:25:45.008Z,18.60
2022-12-25T16:28:22.107Z,19.40
2022-12-25T16:30:59.130Z,19.00
2022-12-25T16:33:35.620Z,19.00
2022-12-25T16:36:15.557Z,18.30
2022-12-25T16:38:52.198Z,17.30
2022-12-25T16:41:28.335Z,18.40
2022-12-25T16:44:10.295Z,19.30
2022-12-25T16:46:47.341Z,17.70
2022-12-25T16:49:24.429Z,17.30
2022-12-25T16:52:01.025Z,15.70
2022-12-25T16:54:38.418Z,16.90
2022-12-25T16:57:15.935Z,16.60
2022-12-25T16:59:52.957Z,17.80
2022-12-25T17:02:30.302Z,17.20
2022-12-25T17:05:07.205Z,18.70
2022-12-25T17:07:45.393Z,16.60
2022-12-25T17:10:21.499Z,16.60
2022-12-25T17:12:58.615Z,16.50
2022-12-25T17:15:35.199Z,17.10
2022-12-25T17:18:12.017Z,16.60
2022-12-25T17:20:57.507Z,16.60
2022-12-25T17:23:34.546Z,16.20
2022-12-25T17:26:12.733Z,16.90
2022-12-25T17:28:50.019Z,17.60
2022-12-25T17:31:26.975Z,16.60
2022-12-25T17:34:06.084Z,15.50
2022-12-25T17:36:44.151Z,16.10
2022-12-25T17:39:21.236Z,17.10
2022-12-25T17:41:59.157Z,16.40
2022-12-25T17:44:36.304Z,16.80
2022-12-25T17:47:12.528Z,16.90
2022-12-25T17:49:49.295Z,18.40
2022-12-25T17:52:25.517Z,16.60
2022-12-25T17:55:02.983Z,17.20
2022-12-25T17:57:41.378Z,17.40
2022-12-25T18:00:23.937Z,18.20
2022-12-25T18:03:08.844Z,17.30
2022-12-25T18:05:47.233Z,15.60
2022-12-25T18:08:24.340Z,14.40
2022-12-25T18:11:04.240Z,16.10
2022-12-25T18:13:42.263Z,16.20
2022-12-25T18:16:20.228Z,15.80
2022-12-25T18:18:57.305Z,15.40
2022-12-25T18:21:34.491Z,15.10
2022-12-25T18:24:13.837Z,16.70
2022-12-25T18:26:50.482Z,14.80
2022-12-25T18:29:26.858Z,18.70
2022-12-25T18:32:04.417Z,23.20
2022-12-25T18:34:41.709Z,20.90
2022-12-25T18:37:18.676Z,22.40
2022-12-25T18:39:55.211Z,22.90
2022-12-25T18:42:43.820Z,24.50
2022-12-25T18:45:24.211Z,24.30
2022-12-25T18:48:03.809Z,21.50
2022-12-25T18:50:41.729Z,19.10
2022-12-25T18:53:18.597Z,20.50
2022-12-25T18:55:55.771Z,17.60
2022-12-25T18:58:32.216Z,19.10
2022-12-25T19:01:14.637Z,11.40
2022-12-25T19:03:53.873Z,20.00
2022-12-25T19:06:34.725Z,18.50
2022-12-25T19:09:11.287Z,20.10
2022-12-25T19:11:48.156Z,17.90
2022-12-25T19:14:24.639Z,21.70
2022-12-25T19:17:02.151Z,19.10
2022-12-25T19:19:40.170Z,19.00
2022-12-25T19:22:17.566Z,19.90
2022-12-25T19:24:54.268Z,19.50
2022-12-25T19:27:31.732Z,18.30
2022-12-25T19:30:12.418Z,20.10
2022-12-25T19:32:49.176Z,19.70
2022-12-25T19:35:26.527Z,17.40
2022-12-25T19:38:02.577Z,17.10
2022-12-25T19:40:40.989Z,18.40
2022-12-25T19:43:17.152Z,18.10
2022-12-25T19:45:53.889Z,18.30
2022-12-25T19:48:31.049Z,18.20
2022-12-25T19:51:06.565Z,19.10
2022-12-25T19:53:43.878Z,27.50
2022-12-25T19:56:21.040Z,20.50
2022-12-25T19:58:58.027Z,20.20
2022-12-25T20:01:36.500Z,20.50
2022-12-25T20:04:13.497Z,21.70
2022-12-25T20:06:49.219Z,21.60
2022-12-25T20:09:26.602Z,22.60
2022-12-25T20:12:04.378Z,22.50
2022-12-25T20:14:41.550Z,20.90
2022-12-25T20:17:18.936Z,20.20
2022-12-25T20:19:55.472Z,20.50
2022-12-25T20:22:32.487Z,21.50
2022-12-25T20:25:12.020Z,20.90
2022-12-25T20:27:48.681Z,21.50
2022-12-25T20:30:26.861Z,26.70
2022-12-25T20:33:03.709Z,25.10
2022-12-25T20:35:40.705Z,24.20
2022-12-25T20:38:18.839Z,25.10
2022-12-25T20:43:59.900Z,21.30
2022-12-25T20:46:37.456Z,24.30
2022-12-25T20:49:14.428Z,22.90
2022-12-25T20:51:51.853Z,19.00
2022-12-25T20:54:28.915Z,18.90
2022-12-25T20:57:05.925Z,20.70
2022-12-25T20:59:44.637Z,19.80
2022-12-25T21:02:34.210Z,20.00
2022-12-25T21:05:15.606Z,21.20
2022-12-25T21:07:52.772Z,20.80
2022-12-25T21:10:30.144Z,18.90
2022-12-25T21:13:07.314Z,19.50
2022-12-25T21:15:48.370Z,24.30
2022-12-25T21:18:26.237Z,21.30
2022-12-25T21:21:07.977Z,21.70
2022-12-25T21:23:45.856Z,21.90
2022-12-25T21:26:27.729Z,22.60
2022-12-25T21:29:05.806Z,21.50
2022-12-25T21:31:56.113Z,24.60
2022-12-25T21:34:34.635Z,25.70
2022-12-25T21:37:11.700Z,22.20
2022-12-25T21:39:51.696Z,21.00
2022-12-25T21:42:28.525Z,23.10
2022-12-25T21:45:05.391Z,21.30
2022-12-25T21:47:59.841Z,20.50
2022-12-25T21:50:56.499Z,18.80
2022-12-25T21:53:33.134Z,19.00
2022-12-25T21:56:10.670Z,19.70
2022-12-25T21:58:47.410Z,25.00
2022-12-25T22:01:25.149Z,19.50
2022-12-25T22:04:06.360Z,19.20
2022-12-25T22:07:00.471Z,16.60
2022-12-25T22:09:37.610Z,16.10
2022-12-25T22:12:34.480Z,15.10
2022-12-25T22:15:16.812Z,17.60
2022-12-25T22:18:10.559Z,16.50
2022-12-25T22:20:46.938Z,16.30
2022-12-25T22:23:23.086Z,15.80
2022-12-25T22:26:00.753Z,14.70
2022-12-25T22:28:37.355Z,15.20
2022-12-25T22:31:16.285Z,14.30
2022-12-25T22:33:52.924Z,13.50
2022-12-25T22:36:29.344Z,14.90
2022-12-25T22:39:07.134Z,15.00
2022-12-25T22:41:43.542Z,14.80
2022-12-25T22:44:19.555Z,14.00
2022-12-25T22:46:57.722Z,15.20
2022-12-25T22:49:35.305Z,14.00
2022-12-25T22:52:12.116Z,14.00
2022-12-25T22:54:48.910Z,16.10
2022-12-25T22:57:25.268Z,15.10
2022-12-25T23:00:01.675Z,17.40
2022-12-25T23:02:38.506Z,15.80
2022-12-25T23:05:17.776Z,16.70
2022-12-25T23:07:54.448Z,17.40
2022-12-25T23:10:31.181Z,17.50
2022-12-25T23:13:24.766Z,18.40
2022-12-25T23:16:01.721Z,19.60
2022-12-25T23:18:55.897Z,19.00
2022-12-25T23:21:49.214Z,19.50
2022-12-25T23:24:42.597Z,18.20
2022-12-25T23:27:19.087Z,18.70
2022-12-25T23:29:55.423Z,18.40
2022-12-25T23:32:32.307Z,18.30
2022-12-25T23:35:13.503Z,20.90
2022-12-25T23:37:53.256Z,18.60
2022-12-25T23:40:30.534Z,19.30
2022-12-25T23:43:07.839Z,19.30
2022-12-25T23:45:44.644Z,19.10
2022-12-25T23:48:22.453Z,18.20
2022-12-25T23:51:00.152Z,19.30
2022-12-25T23:53:35.757Z,19.40
2022-12-25T23:56:13.674Z,19.20
2022-12-25T23:58:52.066Z,19.70
